Time;durP1;ratioP1;P1;durP2;ratioP2;P2;SDS_P1;SDS_P2;PMS_P1;PMS_P2;Temp;Humidity;BMP_temperature;BMP_pressure;BME280_temperature;BME280_humidity;BME280_pressure;Samples;Min_cycle;Max_cycle;Signal;HPM_P1;HPM_P2
2022/11/12 00:00:58;;;;;;;1.77;0.70;;;;;;;;;;8344411;28;20143;-64
2022/11/12 00:04:58;;;;;;;1.30;0.80;;;;;;;;;;8341555;28;20099;-64
2022/11/12 00:08:58;;;;;;;0.70;0.63;;;;;;;;;;8344600;28;20066;-64
2022/11/12 00:12:58;;;;;;;1.35;1.23;;;;;;;;;;8345258;28;20106;-64
2022/11/12 00:16:58;;;;;;;4.22;1.15;;;;;;;;;;8347336;28;20049;-64
2022/11/12 00:20:59;;;;;;;1.13;1.05;;;;;;;;;;8345940;28;20054;-65
2022/11/12 00:24:59;;;;;;;17.25;1.80;;;;;;;;;;8348119;28;20013;-64
2022/11/12 00:28:59;;;;;;;3.47;1.75;;;;;;;;;;8353164;28;20071;-64
2022/11/12 00:33:03;;;;;;;11.48;1.90;;;;;;;;;;8362188;28;20029;-64
2022/11/12 00:37:04;;;;;;;11.00;1.45;;;;;;;;;;8357973;28;20031;-64
2022/11/12 00:41:04;;;;;;;5.90;2.40;;;;;;;;;;8360339;28;20038;-64
2022/11/12 00:45:04;;;;;;;14.68;1.52;;;;;;;;;;8358449;28;20122;-64
2022/11/12 00:49:05;;;;;;;39.42;1.85;;;;;;;;;;8358421;28;20020;-64
2022/11/12 00:53:05;;;;;;;29.83;1.75;;;;;;;;;;8359562;28;20317;-64
2022/11/12 00:57:05;;;;;;;58.85;2.38;;;;;;;;;;8354652;28;20028;-64
2022/11/12 01:01:06;;;;;;;22.70;1.50;;;;;;;;;;8357571;28;20078;-64
2022/11/12 01:05:07;;;;;;;69.15;3.35;;;;;;;;;;8344983;28;20028;-64
2022/11/12 01:09:08;;;;;;;21.95;1.85;;;;;;;;;;8360938;28;20512;-64
2022/11/12 01:13:08;;;;;;;61.75;2.08;;;;;;;;;;8329301;28;20021;-64
2022/11/12 01:17:08;;;;;;;41.25;1.88;;;;;;;;;;8356341;28;20681;-64
2022/11/12 01:21:08;;;;;;;2.90;1.33;;;;;;;;;;8356289;28;20650;-64
2022/11/12 01:25:09;;;;;;;1.65;1.30;;;;;;;;;;8341781;28;20471;-64
2022/11/12 01:29:09;;;;;;;1.38;1.27;;;;;;;;;;8355055;28;20024;-65
2022/11/12 01:33:09;;;;;;;1.35;1.25;;;;;;;;;;8354478;28;20036;-64
2022/11/12 01:37:10;;;;;;;1.17;1.08;;;;;;;;;;8354854;28;20048;-63
2022/11/12 01:41:14;;;;;;;1.30;1.20;;;;;;;;;;8355576;28;20884;-63
2022/11/12 01:45:15;;;;;;;1.10;1.00;;;;;;;;;;8356154;28;20089;-63
2022/11/12 01:49:19;;;;;;;1.20;1.10;;;;;;;;;;8353621;28;20063;-63
2022/11/12 01:53:21;;;;;;;1.10;1.00;;;;;;;;;;8356927;28;20307;-63
2022/11/12 01:57:26;;;;;;;1.50;1.40;;;;;;;;;;8354925;28;20036;-63
2022/11/12 02:01:26;;;;;;;1.95;1.27;;;;;;;;;;8354183;28;20067;-63
2022/11/12 02:05:28;;;;;;;1.90;1.33;;;;;;;;;;8357288;28;20500;-63
2022/11/12 02:09:29;;;;;;;3.42;1.80;;;;;;;;;;8355533;28;20780;-63
2022/11/12 02:17:48;;;;;;;28.17;2.28;;;;;;;;;;8356232;28;20071;-64
2022/11/12 02:21:48;;;;;;;14.93;1.88;;;;;;;;;;8352565;28;20111;-63
2022/11/12 02:25:48;;;;;;;28.83;2.13;;;;;;;;;;8355006;28;20524;-63
2022/11/12 02:29:48;;;;;;;50.10;2.65;;;;;;;;;;8356156;28;20017;-63
2022/11/12 02:33:48;;;;;;;80.72;2.70;;;;;;;;;;8355900;28;20071;-62
2022/11/12 02:37:49;;;;;;;28.95;1.60;;;;;;;;;;8355297;28;20749;-64
2022/11/12 02:41:49;;;;;;;87.18;3.10;;;;;;;;;;8357610;28;20028;-63
2022/11/12 02:45:49;;;;;;;72.38;2.45;;;;;;;;;;8353853;28;20139;-63
2022/11/12 02:49:49;;;;;;;93.60;2.90;;;;;;;;;;8357344;28;20111;-63
2022/11/12 02:53:49;;;;;;;101.47;3.70;;;;;;;;;;8357237;28;20025;-63
2022/11/12 02:57:50;;;;;;;109.22;3.60;;;;;;;;;;8353937;28;20017;-63
2022/11/12 03:01:50;;;;;;;67.85;3.00;;;;;;;;;;8355155;28;20056;-64
2022/11/12 03:05:57;;;;;;;44.72;2.53;;;;;;;;;;8356069;28;20024;-63
2022/11/12 03:09:57;;;;;;;45.65;2.50;;;;;;;;;;8350408;28;20017;-63
2022/11/12 03:13:58;;;;;;;12.63;1.90;;;;;;;;;;8354668;28;20848;-64
2022/11/12 03:17:58;;;;;;;10.10;1.67;;;;;;;;;;8355988;28;20041;-63
2022/11/12 03:21:58;;;;;;;19.30;2.10;;;;;;;;;;8344185;28;20063;-63
2022/11/12 03:26:00;;;;;;;35.72;2.25;;;;;;;;;;8361565;28;20024;-63
2022/11/12 03:30:00;;;;;;;6.95;1.30;;;;;;;;;;8360800;28;20071;-63
2022/11/12 03:34:01;;;;;;;16.73;1.50;;;;;;;;;;8361961;28;20044;-63
2022/11/12 03:38:01;;;;;;;40.45;1.90;;;;;;;;;;8361953;28;20020;-64
2022/11/12 03:42:02;;;;;;;2.58;1.20;;;;;;;;;;8360774;28;20122;-63
2022/11/12 03:46:02;;;;;;;29.58;2.10;;;;;;;;;;8358770;28;20087;-66
2022/11/12 03:50:03;;;;;;;2.35;1.60;;;;;;;;;;8359810;28;20067;-64
2022/11/12 03:54:05;;;;;;;76.25;3.63;;;;;;;;;;8357749;28;20020;-64
2022/11/12 03:58:05;;;;;;;66.13;3.17;;;;;;;;;;8357004;28;20355;-63
2022/11/12 04:02:06;;;;;;;8.25;2.35;;;;;;;;;;8358694;28;20884;-63
2022/11/12 04:10:28;;;;;;;48.10;3.22;;;;;;;;;;8361274;28;20111;-63
2022/11/12 04:14:28;;;;;;;136.05;4.78;;;;;;;;;;8359979;28;20039;-63
2022/11/12 04:22:47;;;;;;;37.30;2.63;;;;;;;;;;8362179;28;20039;-63
2022/11/12 04:26:47;;;;;;;145.85;4.32;;;;;;;;;;8358551;28;20446;-63
2022/11/12 04:30:47;;;;;;;18.63;2.38;;;;;;;;;;8358335;28;20613;-64
2022/11/12 04:34:48;;;;;;;62.58;2.72;;;;;;;;;;8360502;28;20051;-63
2022/11/12 04:38:48;;;;;;;37.97;3.33;;;;;;;;;;8345534;28;20020;-63
2022/11/12 04:47:07;;;;;;;148.73;5.38;;;;;;;;;;8359965;28;20673;-62
2022/11/12 04:52:03;;;;;;;237.63;7.93;;;;;;;;;;8357101;28;20025;-63
2022/11/12 04:55:27;;;;;;;127.63;5.65;;;;;;;;;;8357325;28;20767;-62
2022/11/12 04:59:27;;;;;;;204.15;6.70;;;;;;;;;;8358927;28;20126;-63
2022/11/12 05:03:27;;;;;;;25.25;2.47;;;;;;;;;;8358333;28;20058;-63
2022/11/12 05:07:28;;;;;;;107.90;4.57;;;;;;;;;;8358612;28;20033;-63
2022/11/12 05:11:28;;;;;;;75.72;3.60;;;;;;;;;;8355922;28;20043;-63
2022/11/12 05:15:28;;;;;;;65.80;3.85;;;;;;;;;;8355947;28;20040;-62
2022/11/12 05:19:28;;;;;;;80.38;3.35;;;;;;;;;;8355762;28;20066;-63
2022/11/12 05:23:28;;;;;;;126.60;4.22;;;;;;;;;;8355285;28;20032;-62
2022/11/12 05:27:29;;;;;;;113.18;3.60;;;;;;;;;;8354383;28;20024;-63
2022/11/12 05:31:29;;;;;;;304.10;9.05;;;;;;;;;;8353996;28;20068;-63
2022/11/12 05:35:29;;;;;;;330.13;8.80;;;;;;;;;;8353455;28;20017;-63
2022/11/12 05:39:29;;;;;;;231.23;7.32;;;;;;;;;;8358706;28;20051;-63
2022/11/12 05:43:29;;;;;;;205.63;7.63;;;;;;;;;;8355887;28;20025;-63
2022/11/12 05:47:30;;;;;;;341.30;8.63;;;;;;;;;;8356318;28;20190;-64
2022/11/12 05:51:30;;;;;;;273.13;8.07;;;;;;;;;;8353850;28;20277;-63
2022/11/12 05:55:30;;;;;;;250.60;7.88;;;;;;;;;;8354266;28;20032;-63
2022/11/12 05:59:30;;;;;;;280.23;7.72;;;;;;;;;;8355400;28;20111;-62
2022/11/12 06:03:30;;;;;;;278.67;7.25;;;;;;;;;;8354111;28;20165;-63
2022/11/12 06:07:31;;;;;;;204.57;5.68;;;;;;;;;;8351707;28;20028;-63
2022/11/12 06:11:31;;;;;;;338.88;10.70;;;;;;;;;;8360873;28;20025;-64
2022/11/12 06:15:31;;;;;;;276.55;9.38;;;;;;;;;;8353387;28;20024;-63
2022/11/12 06:19:31;;;;;;;511.63;14.27;;;;;;;;;;8354571;28;20044;-64
2022/11/12 06:23:32;;;;;;;367.70;10.07;;;;;;;;;;8353415;28;20378;-63
2022/11/12 06:27:32;;;;;;;555.78;14.50;;;;;;;;;;8326630;28;20831;-63
2022/11/12 06:31:32;;;;;;;380.52;10.48;;;;;;;;;;8355342;28;21366;-65
2022/11/12 06:35:32;;;;;;;448.02;12.95;;;;;;;;;;8353042;28;20355;-63
2022/11/12 06:39:33;;;;;;;516.70;14.10;;;;;;;;;;8356303;28;20206;-63
2022/11/12 06:43:33;;;;;;;332.10;11.07;;;;;;;;;;8358432;28;20534;-63
2022/11/12 06:47:33;;;;;;;364.37;11.93;;;;;;;;;;8356209;28;20110;-63
2022/11/12 06:51:33;;;;;;;351.30;10.70;;;;;;;;;;8335850;28;20842;-63
2022/11/12 06:55:33;;;;;;;324.52;8.90;;;;;;;;;;8357856;28;20071;-63
2022/11/12 06:59:34;;;;;;;372.45;11.45;;;;;;;;;;8355404;28;20106;-63
2022/11/12 07:03:34;;;;;;;398.45;13.00;;;;;;;;;;8338469;28;20133;-63
2022/11/12 07:07:35;;;;;;;218.20;7.10;;;;;;;;;;8359354;28;20122;-63
2022/11/12 07:11:35;;;;;;;238.68;7.30;;;;;;;;;;8358653;28;20020;-63
2022/11/12 07:15:35;;;;;;;435.98;12.45;;;;;;;;;;8338207;28;20560;-63
2022/11/12 07:19:36;;;;;;;345.40;11.38;;;;;;;;;;8354352;28;20013;-63
2022/11/12 07:23:36;;;;;;;386.65;10.85;;;;;;;;;;8348610;28;20067;-63
2022/11/12 07:27:36;;;;;;;229.23;7.05;;;;;;;;;;8351276;28;20156;-63
2022/11/12 07:31:36;;;;;;;350.75;9.63;;;;;;;;;;8349078;28;20025;-63
2022/11/12 07:35:37;;;;;;;223.95;6.68;;;;;;;;;;8351726;28;20880;-63
2022/11/12 07:39:37;;;;;;;245.85;8.32;;;;;;;;;;8347021;28;20024;-63
2022/11/12 07:43:37;;;;;;;66.10;3.77;;;;;;;;;;8345791;28;20515;-63
2022/11/12 07:47:38;;;;;;;186.23;6.43;;;;;;;;;;8345281;28;20766;-63
2022/11/12 07:51:38;;;;;;;119.35;4.72;;;;;;;;;;8345953;28;20094;-63
2022/11/12 07:55:38;;;;;;;195.95;6.40;;;;;;;;;;8344275;28;20036;-63
2022/11/12 07:59:38;;;;;;;207.53;6.50;;;;;;;;;;8346074;28;20348;-64
2022/11/12 08:03:38;;;;;;;157.07;5.35;;;;;;;;;;8342785;28;20727;-63
2022/11/12 08:07:39;;;;;;;177.57;6.23;;;;;;;;;;8346072;28;20346;-63
2022/11/12 08:11:40;;;;;;;61.45;4.25;;;;;;;;;;8344513;28;20267;-64
2022/11/12 08:15:41;;;;;;;72.88;4.18;;;;;;;;;;8345960;28;20494;-63
2022/11/12 08:19:41;;;;;;;353.17;11.13;;;;;;;;;;8346782;28;20055;-63
2022/11/12 08:23:41;;;;;;;59.47;4.68;;;;;;;;;;8348325;28;20031;-63
2022/11/12 08:27:41;;;;;;;117.95;5.20;;;;;;;;;;8347974;28;20123;-64
2022/11/12 08:31:41;;;;;;;152.15;5.47;;;;;;;;;;8345900;28;20318;-64
2022/11/12 08:35:42;;;;;;;169.38;5.85;;;;;;;;;;8346997;28;20032;-64
2022/11/12 08:39:42;;;;;;;167.25;6.28;;;;;;;;;;8344990;28;20549;-63
2022/11/12 08:43:42;;;;;;;51.23;3.57;;;;;;;;;;8351526;28;20246;-64
2022/11/12 08:47:42;;;;;;;156.73;5.35;;;;;;;;;;8346284;28;20271;-64
2022/11/12 08:51:43;;;;;;;111.25;4.18;;;;;;;;;;8328359;28;20028;-63
2022/11/12 08:55:43;;;;;;;102.88;4.43;;;;;;;;;;8347749;28;20916;-63
2022/11/12 08:59:43;;;;;;;117.43;4.63;;;;;;;;;;8340570;28;20028;-63
2022/11/12 09:03:43;;;;;;;10.20;2.88;;;;;;;;;;8343719;28;20576;-63
2022/11/12 09:07:44;;;;;;;158.00;5.88;;;;;;;;;;8343212;28;20020;-64
2022/11/12 09:11:44;;;;;;;155.05;5.63;;;;;;;;;;8342738;28;20473;-63
2022/11/12 09:15:45;;;;;;;174.68;5.85;;;;;;;;;;8343407;28;20533;-63
2022/11/12 09:19:45;;;;;;;240.55;6.85;;;;;;;;;;8342826;28;20025;-64
2022/11/12 09:23:46;;;;;;;89.25;4.32;;;;;;;;;;8348493;28;20106;-64
2022/11/12 09:27:46;;;;;;;131.80;6.18;;;;;;;;;;8354951;28;20085;-64
2022/11/12 09:31:46;;;;;;;100.00;5.03;;;;;;;;;;8346455;28;20052;-63
2022/11/12 09:35:47;;;;;;;200.88;6.38;;;;;;;;;;8346674;28;20424;-63
2022/11/12 09:39:47;;;;;;;89.10;4.65;;;;;;;;;;8350874;28;20016;-63
2022/11/12 09:43:51;;;;;;;78.32;4.38;;;;;;;;;;8345659;28;20060;-63
2022/11/12 09:47:57;;;;;;;44.58;3.75;;;;;;;;;;8347943;28;20127;-64
2022/11/12 09:52:24;;;;;;;124.55;5.20;;;;;;;;;;8348472;28;20013;-63
2022/11/12 09:56:25;;;;;;;107.15;5.32;;;;;;;;;;8347586;28;20044;-63
2022/11/12 10:00:25;;;;;;;89.20;5.30;;;;;;;;;;8356039;28;20815;-64
2022/11/12 10:04:34;;;;;;;64.07;5.60;;;;;;;;;;8357915;28;20093;-64
2022/11/12 10:08:40;;;;;;;111.45;6.72;;;;;;;;;;8326694;28;20095;-63
2022/11/12 10:12:46;;;;;;;79.25;5.97;;;;;;;;;;8358366;28;20131;-63
2022/11/12 10:16:47;;;;;;;140.48;6.85;;;;;;;;;;8355272;28;20028;-63
2022/11/12 10:20:59;;;;;;;47.08;6.53;;;;;;;;;;8355306;28;20933;-69
2022/11/12 10:25:09;;;;;;;67.10;5.72;;;;;;;;;;8359291;28;20013;-63
2022/11/12 10:29:09;;;;;;;64.95;6.22;;;;;;;;;;8355740;28;20025;-64
2022/11/12 10:33:13;;;;;;;173.02;10.23;;;;;;;;;;8355803;28;20025;-63
2022/11/12 10:37:19;;;;;;;59.97;7.70;;;;;;;;;;8351354;28;20025;-63
2022/11/12 10:41:21;;;;;;;113.43;7.70;;;;;;;;;;8357204;28;20075;-64
2022/11/12 10:45:22;;;;;;;100.57;10.07;;;;;;;;;;8354573;28;20020;-63
2022/11/12 10:49:23;;;;;;;177.23;10.30;;;;;;;;;;8356079;28;20112;-64
2022/11/12 10:53:31;;;;;;;120.88;13.10;;;;;;;;;;8357084;28;20911;-64
2022/11/12 10:57:31;;;;;;;69.53;9.02;;;;;;;;;;8338995;28;20668;-63
2022/11/12 11:01:32;;;;;;;40.03;8.65;;;;;;;;;;8351653;28;20083;-63
2022/11/12 11:05:37;;;;;;;60.05;8.25;;;;;;;;;;8354533;28;20099;-64
2022/11/12 11:09:50;;;;;;;61.05;8.57;;;;;;;;;;8350149;28;20056;-63
2022/11/12 11:13:51;;;;;;;156.02;9.23;;;;;;;;;;8330388;28;20021;-64
2022/11/12 11:17:51;;;;;;;48.20;8.32;;;;;;;;;;8346765;28;20597;-64
2022/11/12 11:22:04;;;;;;;142.90;9.05;;;;;;;;;;8350404;28;20024;-64
2022/11/12 11:26:23;;;;;;;120.05;8.55;;;;;;;;;;8350855;28;20347;-64
2022/11/12 11:30:23;;;;;;;196.10;9.57;;;;;;;;;;8346382;28;20429;-64
2022/11/12 11:34:47;;;;;;;114.32;8.25;;;;;;;;;;8346625;28;20619;-64
2022/11/12 11:38:55;;;;;;;191.98;9.88;;;;;;;;;;8349378;28;20055;-64
2022/11/12 11:43:10;;;;;;;84.10;7.05;;;;;;;;;;8351611;28;20239;-64
2022/11/12 11:47:21;;;;;;;133.18;9.18;;;;;;;;;;8347521;28;20064;-64
2022/11/12 11:51:30;;;;;;;147.68;8.80;;;;;;;;;;8353785;28;20091;-64
2022/11/12 11:55:34;;;;;;;118.15;7.40;;;;;;;;;;8351470;28;20024;-64
2022/11/12 11:59:53;;;;;;;119.38;7.65;;;;;;;;;;8350506;28;20020;-64
2022/11/12 12:04:05;;;;;;;270.17;12.40;;;;;;;;;;8350031;28;20050;-64
2022/11/12 12:08:08;;;;;;;100.00;8.50;;;;;;;;;;8350918;28;20118;-64
2022/11/12 12:12:08;;;;;;;212.83;10.57;;;;;;;;;;8348919;28;20016;-64
2022/11/12 12:16:09;;;;;;;195.32;10.65;;;;;;;;;;8350004;28;20054;-65
2022/11/12 12:20:29;;;;;;;269.20;12.38;;;;;;;;;;8349397;28;20660;-64
2022/11/12 12:24:31;;;;;;;62.33;7.72;;;;;;;;;;8353038;28;20130;-64
2022/11/12 12:28:35;;;;;;;48.05;7.65;;;;;;;;;;8356718;28;20776;-65
2022/11/12 12:32:44;;;;;;;41.55;8.70;;;;;;;;;;8356023;28;20044;-64
2022/11/12 12:36:45;;;;;;;244.65;13.77;;;;;;;;;;8357958;28;20027;-63
2022/11/12 12:40:48;;;;;;;171.43;10.50;;;;;;;;;;8357735;28;20032;-64
2022/11/12 12:45:03;;;;;;;60.13;8.87;;;;;;;;;;8352543;28;20021;-64
2022/11/12 12:49:04;;;;;;;111.47;9.18;;;;;;;;;;8349257;28;20271;-63
2022/11/12 12:53:14;;;;;;;69.45;8.00;;;;;;;;;;8351477;28;20030;-64
2022/11/12 12:57:47;;;;;;;26.25;8.30;;;;;;;;;;8349715;28;20808;-64
2022/11/12 13:01:58;;;;;;;129.73;10.52;;;;;;;;;;8305408;28;20040;-64
2022/11/12 13:06:05;;;;;;;86.05;8.98;;;;;;;;;;8348824;28;20206;-64
2022/11/12 13:10:24;;;;;;;47.25;8.38;;;;;;;;;;8351237;28;20178;-65
2022/11/12 13:14:33;;;;;;;246.02;12.25;;;;;;;;;;8350195;28;20035;-64
2022/11/12 13:18:36;;;;;;;116.28;10.10;;;;;;;;;;8353543;28;20058;-64
2022/11/12 13:22:37;;;;;;;152.77;12.10;;;;;;;;;;8358332;28;20027;-64
2022/11/12 13:26:43;;;;;;;220.25;12.27;;;;;;;;;;8356336;28;20444;-64
2022/11/12 13:30:43;;;;;;;53.58;9.23;;;;;;;;;;8352075;28;20186;-64
2022/11/12 13:34:43;;;;;;;191.10;11.27;;;;;;;;;;8353970;28;20013;-65
2022/11/12 13:38:44;;;;;;;120.45;9.90;;;;;;;;;;8344380;28;20035;-64
2022/11/12 13:42:47;;;;;;;152.23;11.32;;;;;;;;;;8347465;28;20108;-63
2022/11/12 13:46:49;;;;;;;40.70;9.23;;;;;;;;;;8346442;28;20037;-64
2022/11/12 13:51:03;;;;;;;32.97;8.98;;;;;;;;;;8349453;28;20031;-64
2022/11/12 13:55:03;;;;;;;;;;;;;;;;;;8354032;28;20030;-64
2022/11/12 13:59:13;;;;;;;20.73;7.60;;;;;;;;;;8351981;28;19919;-64
2022/11/12 14:03:15;;;;;;;74.22;8.88;;;;;;;;;;8354282;28;20032;-64
2022/11/12 14:07:30;;;;;;;11.82;8.10;;;;;;;;;;8352471;28;20070;-63
2022/11/12 14:11:37;;;;;;;122.43;8.75;;;;;;;;;;8354073;28;20083;-63
2022/11/12 14:15:56;;;;;;;40.95;7.88;;;;;;;;;;8353901;28;20472;-63
2022/11/12 14:19:59;;;;;;;61.13;8.55;;;;;;;;;;8353203;28;20054;-64
2022/11/12 14:24:00;;;;;;;98.43;8.38;;;;;;;;;;8351366;28;20095;-64
2022/11/12 14:28:00;;;;;;;48.05;8.00;;;;;;;;;;8355062;28;20368;-63
2022/11/12 14:32:01;;;;;;;82.03;8.45;;;;;;;;;;8353281;28;20032;-64
2022/11/12 14:36:03;;;;;;;106.22;8.75;;;;;;;;;;8355962;28;20043;-64
2022/11/12 14:40:03;;;;;;;70.35;8.57;;;;;;;;;;8354535;28;20160;-64
2022/11/12 14:44:04;;;;;;;65.00;8.60;;;;;;;;;;8353554;28;20017;-64
2022/11/12 14:48:07;;;;;;;79.57;8.35;;;;;;;;;;8352270;28;20036;-64
2022/11/12 14:52:14;;;;;;;97.45;8.90;;;;;;;;;;8352578;28;20087;-64
2022/11/12 14:56:33;;;;;;;65.63;8.02;;;;;;;;;;8356673;28;20051;-63
2022/11/12 15:00:41;;;;;;;160.25;10.63;;;;;;;;;;8354700;28;20036;-64
2022/11/12 15:04:43;;;;;;;186.23;11.93;;;;;;;;;;8354837;28;20475;-63
2022/11/12 15:08:43;;;;;;;277.02;12.35;;;;;;;;;;8354318;28;20031;-63
2022/11/12 15:12:43;;;;;;;107.28;9.18;;;;;;;;;;8352882;28;20024;-63
2022/11/12 15:16:43;;;;;;;126.05;10.07;;;;;;;;;;8360192;28;20706;-63
2022/11/12 15:20:44;;;;;;;270.73;11.95;;;;;;;;;;8341289;28;20033;-64
2022/11/12 15:24:44;;;;;;;75.30;7.82;;;;;;;;;;8356987;28;20032;-63
2022/11/12 15:28:58;;;;;;;172.88;10.00;;;;;;;;;;8359782;28;20225;-63
2022/11/12 15:33:07;;;;;;;286.80;12.32;;;;;;;;;;8358693;28;20837;-63
2022/11/12 15:37:09;;;;;;;103.25;8.32;;;;;;;;;;8359125;28;20031;-63
2022/11/12 15:41:26;;;;;;;275.35;11.73;;;;;;;;;;8358022;28;20032;-63
2022/11/12 15:45:27;;;;;;;236.93;11.48;;;;;;;;;;8356775;28;20025;-63
2022/11/12 15:49:27;;;;;;;225.13;10.15;;;;;;;;;;8357733;28;20750;-63
2022/11/12 15:53:29;;;;;;;305.08;11.15;;;;;;;;;;8357903;28;20103;-63
2022/11/12 15:57:30;;;;;;;99.25;6.65;;;;;;;;;;8359480;28;20024;-64
2022/11/12 16:01:31;;;;;;;413.90;13.07;;;;;;;;;;8357555;28;20032;-63
2022/11/12 16:05:31;;;;;;;354.92;11.88;;;;;;;;;;8358206;28;20378;-64
2022/11/12 16:09:32;;;;;;;55.60;6.18;;;;;;;;;;8358584;28;20012;-63
2022/11/12 16:13:33;;;;;;;421.35;13.32;;;;;;;;;;8339160;28;20024;-63
2022/11/12 16:17:33;;;;;;;146.20;7.75;;;;;;;;;;8357727;28;20070;-63
2022/11/12 16:21:33;;;;;;;317.30;12.20;;;;;;;;;;8358231;28;20126;-64
2022/11/12 16:25:34;;;;;;;288.73;10.70;;;;;;;;;;8356871;28;20489;-63
2022/11/12 16:29:34;;;;;;;95.07;6.97;;;;;;;;;;8357978;28;20055;-63
2022/11/12 16:33:38;;;;;;;117.43;6.55;;;;;;;;;;8359262;28;20707;-63
2022/11/12 16:37:38;;;;;;;374.95;11.05;;;;;;;;;;8358070;28;20127;-63
2022/11/12 16:41:38;;;;;;;347.90;10.52;;;;;;;;;;8357389;28;20063;-63
2022/11/12 16:45:40;;;;;;;219.60;8.50;;;;;;;;;;8355964;28;20050;-63
2022/11/12 16:49:41;;;;;;;412.08;13.15;;;;;;;;;;8355896;28;20020;-63
2022/11/12 16:53:41;;;;;;;349.08;10.45;;;;;;;;;;8356572;28;20119;-63
2022/11/12 16:57:42;;;;;;;311.60;10.27;;;;;;;;;;8355268;28;20051;-63
2022/11/12 17:01:43;;;;;;;222.73;9.27;;;;;;;;;;8354880;28;20028;-63
2022/11/12 17:05:43;;;;;;;208.30;9.23;;;;;;;;;;8338059;28;20021;-63
2022/11/12 17:09:43;;;;;;;268.83;9.32;;;;;;;;;;8338862;28;20758;-63
2022/11/12 17:13:44;;;;;;;95.90;6.53;;;;;;;;;;8356810;28;20035;-62
2022/11/12 17:17:44;;;;;;;20.73;4.63;;;;;;;;;;8355496;28;20043;-62
2022/11/12 17:21:45;;;;;;;498.80;14.32;;;;;;;;;;8355783;28;20469;-63
2022/11/12 17:25:45;;;;;;;297.08;9.80;;;;;;;;;;8357408;28;20949;-63
2022/11/12 17:29:45;;;;;;;179.02;6.85;;;;;;;;;;8356221;28;20029;-63
2022/11/12 17:33:46;;;;;;;64.18;5.53;;;;;;;;;;8334906;28;20068;-63
2022/11/12 17:37:47;;;;;;;172.48;6.90;;;;;;;;;;8354385;28;20032;-63
2022/11/12 17:41:47;;;;;;;65.97;4.70;;;;;;;;;;8355040;28;20063;-63
2022/11/12 17:45:48;;;;;;;115.63;5.45;;;;;;;;;;8355582;28;20056;-63
2022/11/12 17:49:48;;;;;;;37.35;4.70;;;;;;;;;;8352225;28;20013;-63
2022/11/12 17:53:48;;;;;;;43.75;4.65;;;;;;;;;;8355231;28;20089;-63
2022/11/12 17:57:49;;;;;;;25.23;4.22;;;;;;;;;;8354217;28;20796;-63
2022/11/12 18:01:49;;;;;;;72.38;5.03;;;;;;;;;;8354973;28;20043;-64
2022/11/12 18:05:58;;;;;;;36.85;4.60;;;;;;;;;;8352613;28;20030;-63
2022/11/12 18:09:59;;;;;;;30.55;4.32;;;;;;;;;;8353711;28;20016;-64
2022/11/12 18:14:05;;;;;;;118.30;6.22;;;;;;;;;;8352545;28;20071;-63
2022/11/12 18:18:06;;;;;;;14.80;3.92;;;;;;;;;;8354785;28;20063;-63
2022/11/12 18:22:06;;;;;;;74.65;4.45;;;;;;;;;;8353445;28;20021;-64
2022/11/12 18:26:06;;;;;;;130.05;5.97;;;;;;;;;;8353680;28;20027;-63
2022/11/12 18:30:06;;;;;;;143.70;5.65;;;;;;;;;;8352159;28;20027;-64
2022/11/12 18:34:09;;;;;;;34.97;3.90;;;;;;;;;;8353325;28;20114;-63
2022/11/12 18:38:09;;;;;;;76.65;4.57;;;;;;;;;;8354588;28;20016;-63
2022/11/12 18:42:10;;;;;;;174.45;6.93;;;;;;;;;;8354323;28;20421;-63
2022/11/12 18:46:10;;;;;;;133.13;6.03;;;;;;;;;;8354187;28;20584;-63
2022/11/12 18:50:10;;;;;;;82.22;4.57;;;;;;;;;;8358045;28;21005;-63
2022/11/12 18:54:10;;;;;;;44.13;3.80;;;;;;;;;;8363522;28;20110;-63
2022/11/12 18:58:10;;;;;;;168.27;6.68;;;;;;;;;;8359794;28;20806;-63
2022/11/12 19:02:11;;;;;;;71.38;4.88;;;;;;;;;;8356471;28;20489;-63
2022/11/12 19:06:12;;;;;;;81.35;4.93;;;;;;;;;;8358822;28;20309;-62
2022/11/12 19:10:12;;;;;;;62.35;4.95;;;;;;;;;;8358456;28;20040;-62
2022/11/12 19:14:12;;;;;;;123.60;6.07;;;;;;;;;;8358327;28;20437;-63
2022/11/12 19:18:13;;;;;;;103.55;5.57;;;;;;;;;;8359563;28;20820;-62
2022/11/12 19:22:13;;;;;;;59.15;4.38;;;;;;;;;;8358662;28;21076;-63
2022/11/12 19:26:14;;;;;;;134.48;5.85;;;;;;;;;;8359966;28;20032;-63
2022/11/12 19:30:15;;;;;;;120.57;5.60;;;;;;;;;;8356844;28;20040;-63
2022/11/12 19:34:15;;;;;;;63.97;4.35;;;;;;;;;;8358364;28;20086;-62
2022/11/12 19:38:15;;;;;;;86.53;5.03;;;;;;;;;;8357854;28;20036;-62
2022/11/12 19:42:15;;;;;;;170.52;6.90;;;;;;;;;;8359228;28;20835;-63
2022/11/12 19:46:15;;;;;;;50.35;4.30;;;;;;;;;;8358764;28;20028;-63
2022/11/12 19:50:16;;;;;;;113.03;5.38;;;;;;;;;;8358249;28;20159;-63
2022/11/12 19:54:16;;;;;;;95.68;5.15;;;;;;;;;;8361019;28;20112;-62
2022/11/12 19:58:16;;;;;;;91.45;6.13;;;;;;;;;;8359670;28;20036;-63
2022/11/12 20:02:16;;;;;;;95.32;5.85;;;;;;;;;;8356623;28;20067;-63
2022/11/12 20:06:18;;;;;;;44.23;4.80;;;;;;;;;;8356292;28;20095;-62
2022/11/12 20:10:18;;;;;;;73.30;4.63;;;;;;;;;;8356427;28;20274;-64
2022/11/12 20:14:18;;;;;;;48.97;4.53;;;;;;;;;;8357115;28;20028;-62
2022/11/12 20:18:18;;;;;;;27.30;3.72;;;;;;;;;;8356442;28;20094;-63
2022/11/12 20:22:18;;;;;;;122.88;5.47;;;;;;;;;;8357023;28;20084;-63
2022/11/12 20:26:19;;;;;;;122.43;5.57;;;;;;;;;;8356887;28;20125;-63
2022/11/12 20:30:19;;;;;;;22.50;3.60;;;;;;;;;;8356351;28;20032;-64
2022/11/12 20:34:19;;;;;;;62.53;4.10;;;;;;;;;;8358432;28;20025;-63
2022/11/12 20:38:19;;;;;;;111.22;4.70;;;;;;;;;;8359045;28;20035;-63
2022/11/12 20:42:19;;;;;;;55.72;4.18;;;;;;;;;;8357993;28;20035;-63
2022/11/12 20:46:20;;;;;;;17.48;3.42;;;;;;;;;;8338989;28;20067;-63
2022/11/12 20:50:20;;;;;;;22.95;3.85;;;;;;;;;;8358613;28;20441;-63
2022/11/12 20:54:20;;;;;;;33.33;3.40;;;;;;;;;;8355840;28;20106;-63
2022/11/12 20:58:20;;;;;;;56.00;3.88;;;;;;;;;;8358262;28;20028;-63
2022/11/12 21:02:21;;;;;;;40.80;3.10;;;;;;;;;;8359755;28;20044;-63
2022/11/12 21:06:23;;;;;;;71.63;3.38;;;;;;;;;;8355270;28;20778;-63
2022/11/12 21:10:26;;;;;;;296.15;9.20;;;;;;;;;;8358642;28;20029;-62
2022/11/12 21:14:26;;;;;;;144.52;5.75;;;;;;;;;;8354631;28;21348;-63
2022/11/12 21:18:27;;;;;;;154.15;6.80;;;;;;;;;;8355045;28;20073;-64
2022/11/12 21:22:27;;;;;;;216.52;10.90;;;;;;;;;;8355700;28;20031;-63
2022/11/12 21:26:27;;;;;;;138.32;7.10;;;;;;;;;;8356310;28;20054;-63
2022/11/12 21:30:27;;;;;;;158.32;6.82;;;;;;;;;;8355914;28;20044;-64
2022/11/12 21:34:28;;;;;;;54.15;3.70;;;;;;;;;;8337368;28;20023;-63
2022/11/12 21:38:28;;;;;;;40.50;3.38;;;;;;;;;;8339142;28;20027;-63
2022/11/12 21:42:28;;;;;;;156.07;5.85;;;;;;;;;;8354571;28;20368;-63
2022/11/12 21:46:29;;;;;;;41.20;3.63;;;;;;;;;;8354178;28;20183;-63
2022/11/12 21:50:29;;;;;;;127.18;5.47;;;;;;;;;;8353000;28;20029;-63
2022/11/12 21:54:30;;;;;;;99.32;5.55;;;;;;;;;;8355986;28;21897;-63
2022/11/12 21:58:30;;;;;;;83.47;4.88;;;;;;;;;;8353748;28;20108;-63
2022/11/12 22:02:30;;;;;;;41.28;3.80;;;;;;;;;;8352555;28;20037;-63
2022/11/12 22:06:30;;;;;;;58.83;5.57;;;;;;;;;;8355950;28;20032;-63
2022/11/12 22:10:30;;;;;;;53.33;5.55;;;;;;;;;;8354822;28;20031;-62
2022/11/12 22:14:31;;;;;;;75.20;5.82;;;;;;;;;;8349498;28;20548;-63
2022/11/12 22:18:34;;;;;;;119.35;7.53;;;;;;;;;;8352881;28;20025;-63
2022/11/12 22:22:34;;;;;;;58.38;6.60;;;;;;;;;;8351597;28;20028;-63
2022/11/12 22:26:34;;;;;;;122.85;8.30;;;;;;;;;;8352966;28;20025;-63
2022/11/12 22:30:34;;;;;;;114.25;8.98;;;;;;;;;;8353551;28;20056;-63
2022/11/12 22:34:35;;;;;;;95.75;7.97;;;;;;;;;;8351908;28;20013;-67
2022/11/12 22:38:36;;;;;;;97.67;8.30;;;;;;;;;;8354413;28;20177;-63
2022/11/12 22:42:36;;;;;;;59.38;7.55;;;;;;;;;;8354030;28;20279;-63
2022/11/12 22:46:36;;;;;;;146.43;9.35;;;;;;;;;;8351803;28;20087;-63
2022/11/12 22:50:36;;;;;;;204.27;11.23;;;;;;;;;;8352779;28;20500;-64
2022/11/12 22:54:37;;;;;;;39.83;7.90;;;;;;;;;;8351159;28;20032;-63
2022/11/12 22:58:37;;;;;;;105.53;8.93;;;;;;;;;;8351808;28;20028;-63
2022/11/12 23:02:38;;;;;;;47.05;8.15;;;;;;;;;;8348334;28;20120;-63
2022/11/12 23:06:38;;;;;;;155.50;9.82;;;;;;;;;;8349799;28;20025;-64
2022/11/12 23:10:38;;;;;;;144.35;9.77;;;;;;;;;;8354703;28;20024;-63
2022/11/12 23:14:39;;;;;;;46.95;8.48;;;;;;;;;;8354686;28;20122;-64
2022/11/12 23:18:39;;;;;;;42.42;8.50;;;;;;;;;;8351356;28;20071;-63
2022/11/12 23:22:39;;;;;;;65.43;8.70;;;;;;;;;;8353564;28;20772;-64
2022/11/12 23:26:39;;;;;;;118.75;8.90;;;;;;;;;;8352132;28;20751;-63
2022/11/12 23:30:39;;;;;;;118.82;9.95;;;;;;;;;;8352169;28;20102;-63
2022/11/12 23:34:39;;;;;;;128.35;10.38;;;;;;;;;;8353538;28;20045;-63
2022/11/12 23:38:40;;;;;;;112.82;9.25;;;;;;;;;;8357938;28;20027;-63
2022/11/12 23:42:40;;;;;;;77.25;7.45;;;;;;;;;;8358301;28;20080;-63
2022/11/12 23:46:41;;;;;;;77.65;6.60;;;;;;;;;;8357826;28;20788;-63
2022/11/12 23:50:41;;;;;;;86.50;5.93;;;;;;;;;;8355892;28;20540;-63
2022/11/12 23:54:41;;;;;;;102.93;7.73;;;;;;;;;;8361592;28;20047;-63